createdAt,value
2018-09-27T00:01:58.921Z,6.60
2018-09-27T00:04:26.346Z,4.83
2018-09-27T00:06:53.754Z,5.30
2018-09-27T00:09:21.180Z,5.00
2018-09-27T00:11:48.683Z,5.40
2018-09-27T00:14:16.070Z,4.60
2018-09-27T00:16:43.466Z,6.03
2018-09-27T00:19:11.025Z,9.70
2018-09-27T00:21:38.444Z,3.93
2018-09-27T00:24:06.058Z,4.47
2018-09-27T00:26:33.557Z,4.17
2018-09-27T00:29:00.925Z,9.23
2018-09-27T00:31:28.340Z,4.17
2018-09-27T00:33:55.703Z,6.13
2018-09-27T00:36:23.042Z,9.33
2018-09-27T00:38:50.461Z,8.43
2018-09-27T00:41:17.851Z,5.10
2018-09-27T00:43:45.202Z,7.53
2018-09-27T00:46:12.702Z,6.30
2018-09-27T00:48:40.087Z,9.33
2018-09-27T00:51:07.493Z,8.63
2018-09-27T00:53:34.908Z,4.60
2018-09-27T00:56:02.323Z,13.37
2018-09-27T00:58:29.724Z,7.83
2018-09-27T01:00:57.158Z,7.07
2018-09-27T01:03:24.553Z,9.13
2018-09-27T01:05:51.966Z,9.93
2018-09-27T01:08:19.315Z,6.67
2018-09-27T01:10:46.681Z,7.07
2018-09-27T01:13:14.126Z,5.40
2018-09-27T01:15:41.591Z,5.40
2018-09-27T01:18:09.014Z,5.23
2018-09-27T01:20:37.055Z,7.13
2018-09-27T01:23:04.521Z,3.80
2018-09-27T01:25:31.911Z,4.90
2018-09-27T01:27:59.253Z,8.53
2018-09-27T01:30:26.598Z,8.73
2018-09-27T01:32:53.998Z,8.07
2018-09-27T01:35:21.382Z,3.30
2018-09-27T01:37:48.759Z,3.37
2018-09-27T01:40:16.187Z,5.73
2018-09-27T01:42:43.516Z,3.60
2018-09-27T01:45:11.082Z,5.10
2018-09-27T01:47:38.499Z,6.20
2018-09-27T01:50:05.970Z,4.03
2018-09-27T01:52:33.363Z,4.43
2018-09-27T01:55:00.774Z,5.50
2018-09-27T01:57:28.135Z,8.47
2018-09-27T01:59:55.582Z,4.60
2018-09-27T02:02:23.060Z,9.73
2018-09-27T02:04:50.430Z,4.10
2018-09-27T02:07:17.806Z,4.53
2018-09-27T02:09:45.249Z,4.47
2018-09-27T02:12:12.646Z,5.03
2018-09-27T02:14:40.093Z,5.20
2018-09-27T02:17:07.494Z,4.03
2018-09-27T02:19:35.987Z,5.83
2018-09-27T02:22:03.533Z,7.13
2018-09-27T02:24:30.973Z,4.63
2018-09-27T02:26:58.314Z,6.80
2018-09-27T02:29:25.766Z,5.50
2018-09-27T02:31:53.114Z,7.03
2018-09-27T02:34:20.463Z,3.57
2018-09-27T02:36:48.258Z,5.43
2018-09-27T02:39:15.625Z,8.20
2018-09-27T02:41:43.048Z,4.00
2018-09-27T02:44:10.459Z,6.30
2018-09-27T02:46:37.837Z,5.67
2018-09-27T02:49:05.238Z,6.73
2018-09-27T02:51:32.675Z,4.83
2018-09-27T02:54:00.056Z,6.57
2018-09-27T02:56:27.454Z,3.90
2018-09-27T02:58:54.815Z,5.63
2018-09-27T03:01:22.251Z,5.27
2018-09-27T03:03:50.732Z,4.60
2018-09-27T03:06:18.155Z,7.60
2018-09-27T03:08:45.645Z,8.30
2018-09-27T03:11:13.019Z,4.50
2018-09-27T03:13:40.406Z,5.97
2018-09-27T03:16:07.773Z,6.37
2018-09-27T03:18:35.210Z,6.00
2018-09-27T03:21:02.760Z,8.13
2018-09-27T03:23:30.074Z,4.80
2018-09-27T03:25:57.486Z,7.07
2018-09-27T03:28:25.458Z,5.53
2018-09-27T03:30:52.918Z,3.70
2018-09-27T03:33:20.311Z,5.17
2018-09-27T03:35:47.716Z,6.00
2018-09-27T03:38:15.086Z,9.00
2018-09-27T03:40:42.564Z,4.07
2018-09-27T03:43:09.929Z,9.27
2018-09-27T03:45:37.335Z,4.80
2018-09-27T03:48:04.910Z,7.23
2018-09-27T03:50:32.319Z,5.50
2018-09-27T03:52:59.696Z,5.57
2018-09-27T03:55:27.058Z,5.40
2018-09-27T03:57:54.474Z,4.27
2018-09-27T04:00:21.882Z,5.80
2018-09-27T04:02:49.423Z,11.40
2018-09-27T04:05:16.854Z,6.67
2018-09-27T04:07:44.767Z,4.60
2018-09-27T04:10:12.207Z,6.70
2018-09-27T04:12:39.635Z,4.47
2018-09-27T04:15:08.735Z,4.10
2018-09-27T04:17:36.229Z,4.53
2018-09-27T04:20:05.031Z,5.37
2018-09-27T04:22:32.483Z,5.03
2018-09-27T04:24:59.891Z,6.93
2018-09-27T04:27:27.255Z,7.60
2018-09-27T04:29:54.918Z,5.30
2018-09-27T04:32:22.277Z,5.93
2018-09-27T04:34:49.686Z,6.00
2018-09-27T04:37:17.098Z,8.87
2018-09-27T04:39:44.520Z,5.13
2018-09-27T04:42:12.246Z,7.33
2018-09-27T04:44:39.678Z,6.23
2018-09-27T04:47:07.159Z,7.63
2018-09-27T04:49:34.561Z,5.40
2018-09-27T04:52:01.944Z,4.37
2018-09-27T04:54:29.475Z,4.43
2018-09-27T04:56:57.379Z,4.50
2018-09-27T04:59:24.818Z,5.10
2018-09-27T05:01:52.216Z,5.90
2018-09-27T05:04:19.805Z,8.33
2018-09-27T05:06:48.183Z,8.20
2018-09-27T05:09:15.601Z,4.63
2018-09-27T05:11:43.095Z,11.33
2018-09-27T05:14:10.535Z,21.60
2018-09-27T05:16:37.966Z,13.70
2018-09-27T05:19:05.341Z,8.30
2018-09-27T05:21:32.771Z,5.57
2018-09-27T05:24:00.166Z,7.57
2018-09-27T05:26:27.568Z,4.60
2018-09-27T05:28:55.101Z,4.63
2018-09-27T05:31:22.531Z,5.00
2018-09-27T05:33:49.972Z,4.77
2018-09-27T05:36:17.319Z,28.13
2018-09-27T05:38:44.782Z,35.63
2018-09-27T05:41:12.205Z,20.30
2018-09-27T05:43:39.658Z,11.73
2018-09-27T05:46:07.203Z,7.13
2018-09-27T05:48:34.562Z,4.97
2018-09-27T05:51:02.915Z,6.70
2018-09-27T05:53:30.291Z,4.80
2018-09-27T05:55:57.763Z,4.23
2018-09-27T05:58:25.235Z,3.60
2018-09-27T06:00:52.810Z,8.73
2018-09-27T06:03:20.287Z,5.50
2018-09-27T06:05:47.755Z,2.77
2018-09-27T06:08:15.174Z,4.40
2018-09-27T06:10:46.371Z,5.50
2018-09-27T06:13:22.022Z,6.50
2018-09-27T06:15:49.402Z,3.47
2018-09-27T06:18:16.872Z,5.70
2018-09-27T06:20:44.322Z,4.03
2018-09-27T06:23:11.742Z,5.17
2018-09-27T06:25:39.215Z,5.90
2018-09-27T06:28:06.698Z,9.73
2018-09-27T06:30:34.179Z,6.40
2018-09-27T06:33:01.850Z,9.13
2018-09-27T06:35:29.366Z,11.00
2018-09-27T06:37:56.824Z,7.57
2018-09-27T06:40:24.404Z,4.53
2018-09-27T06:42:51.821Z,8.00
2018-09-27T06:45:19.292Z,7.07
2018-09-27T06:47:46.745Z,4.83
2018-09-27T06:50:14.152Z,9.40
2018-09-27T06:52:44.482Z,8.13
2018-09-27T06:55:12.058Z,12.03
2018-09-27T06:57:41.522Z,6.00
2018-09-27T07:00:11.971Z,5.80
2018-09-27T07:02:39.510Z,10.27
2018-09-27T07:05:09.047Z,6.00
2018-09-27T07:07:38.323Z,9.77
2018-09-27T07:10:06.622Z,7.40
2018-09-27T07:12:34.149Z,8.37
2018-09-27T07:15:04.459Z,9.90
2018-09-27T07:17:35.261Z,9.60
2018-09-27T07:20:03.379Z,9.17
2018-09-27T07:22:31.891Z,6.50
2018-09-27T07:25:10.248Z,8.73
2018-09-27T07:27:40.283Z,7.70
2018-09-27T07:30:07.787Z,7.77
2018-09-27T07:32:35.235Z,10.67
2018-09-27T07:35:02.659Z,10.03
2018-09-27T07:37:30.163Z,7.77
2018-09-27T07:39:58.283Z,4.57
2018-09-27T07:42:25.661Z,6.23
2018-09-27T07:44:53.263Z,10.77
2018-09-27T07:47:20.776Z,4.37
2018-09-27T07:49:48.203Z,10.07
2018-09-27T07:52:15.600Z,4.00
2018-09-27T07:54:43.560Z,6.77
2018-09-27T07:57:11.558Z,6.00
2018-09-27T07:59:39.128Z,4.40
2018-09-27T08:02:09.290Z,7.00
2018-09-27T08:04:36.667Z,6.40
2018-09-27T08:07:08.375Z,5.83
2018-09-27T08:09:37.450Z,5.40
2018-09-27T08:12:07.150Z,4.70
2018-09-27T08:14:36.502Z,6.43
2018-09-27T08:17:07.473Z,4.33
2018-09-27T08:19:37.234Z,5.50
2018-09-27T08:22:08.410Z,7.07
2018-09-27T08:24:38.721Z,6.60
2018-09-27T08:27:06.115Z,5.97
2018-09-27T08:29:33.528Z,12.30
2018-09-27T08:32:00.957Z,4.47
2018-09-27T08:34:28.430Z,3.97
2018-09-27T08:36:55.896Z,5.13
2018-09-27T08:39:23.294Z,24.20
2018-09-27T08:41:50.713Z,25.70
2018-09-27T08:44:18.924Z,19.10
2018-09-27T08:46:46.323Z,16.73
2018-09-27T08:49:13.781Z,10.50
2018-09-27T08:51:42.660Z,9.07
2018-09-27T08:54:10.839Z,7.77
2018-09-27T08:56:41.612Z,10.20
2018-09-27T08:59:16.313Z,15.17
2018-09-27T09:01:48.688Z,6.60
2018-09-27T09:04:23.278Z,3.80
2018-09-27T09:06:57.851Z,5.13
2018-09-27T09:09:29.811Z,4.80
2018-09-27T09:12:05.786Z,5.20
2018-09-27T09:14:35.321Z,5.70
2018-09-27T09:17:02.799Z,4.13
2018-09-27T09:19:30.203Z,5.50
2018-09-27T09:21:57.607Z,3.63
2018-09-27T09:24:25.158Z,3.37
2018-09-27T09:26:52.598Z,5.47
2018-09-27T09:29:20.110Z,3.50
2018-09-27T09:31:47.428Z,4.37
2018-09-27T09:34:14.875Z,3.63
2018-09-27T09:36:42.302Z,6.57
2018-09-27T09:39:09.691Z,4.10
2018-09-27T09:41:37.243Z,8.40
2018-09-27T09:44:04.910Z,3.50
2018-09-27T09:46:32.490Z,4.53
2018-09-27T09:48:59.879Z,4.33
2018-09-27T09:51:27.265Z,3.83
2018-09-27T09:53:54.816Z,6.30
2018-09-27T09:56:22.243Z,3.93
2018-09-27T09:58:49.677Z,4.00
2018-09-27T10:01:18.101Z,3.07
2018-09-27T10:03:45.453Z,5.17
2018-09-27T10:06:12.850Z,2.57
2018-09-27T10:08:40.335Z,4.30
2018-09-27T10:11:07.830Z,2.77
2018-09-27T10:13:35.292Z,3.90
2018-09-27T10:16:03.163Z,2.70
2018-09-27T10:18:30.583Z,3.30
2018-09-27T10:20:58.031Z,3.50
2018-09-27T10:23:25.587Z,5.40
2018-09-27T10:25:53.055Z,3.80
2018-09-27T10:28:20.500Z,3.43
2018-09-27T10:30:47.973Z,2.43
2018-09-27T10:33:15.377Z,4.43
2018-09-27T10:35:42.878Z,3.40
2018-09-27T10:38:10.856Z,3.70
2018-09-27T10:40:38.370Z,6.23
2018-09-27T10:43:05.784Z,4.50
2018-09-27T10:45:33.207Z,3.80
2018-09-27T10:48:00.603Z,3.57
2018-09-27T10:50:28.037Z,3.83
2018-09-27T10:52:56.460Z,3.33
2018-09-27T10:55:24.031Z,4.50
2018-09-27T10:57:51.431Z,4.50
2018-09-27T11:00:21.723Z,5.67
2018-09-27T11:02:50.373Z,5.50
2018-09-27T11:05:18.129Z,8.43
2018-09-27T11:07:45.609Z,4.50
2018-09-27T11:10:13.044Z,4.77
2018-09-27T11:12:40.621Z,4.13
2018-09-27T11:15:08.502Z,5.63
2018-09-27T11:17:35.902Z,5.83
2018-09-27T11:20:03.458Z,12.57
2018-09-27T11:22:30.885Z,7.43
2018-09-27T11:24:58.344Z,5.90
2018-09-27T11:27:25.816Z,10.50
2018-09-27T11:29:58.935Z,8.60
2018-09-27T11:32:28.594Z,7.93
2018-09-27T11:34:55.971Z,9.80
2018-09-27T11:37:23.374Z,13.20
2018-09-27T11:39:51.478Z,11.50
2018-09-27T11:42:18.999Z,11.83
2018-09-27T11:44:46.389Z,14.93
2018-09-27T11:47:13.835Z,14.43
2018-09-27T11:49:41.405Z,10.70
2018-09-27T11:52:08.719Z,10.10
2018-09-27T11:54:36.479Z,13.13
2018-09-27T11:57:03.950Z,10.30
2018-09-27T11:59:31.277Z,10.17
2018-09-27T12:01:58.695Z,6.90
2018-09-27T12:04:26.094Z,10.10
2018-09-27T12:06:53.498Z,9.10
2018-09-27T12:09:21.135Z,6.97
2018-09-27T12:11:48.546Z,8.10
2018-09-27T12:14:16.155Z,7.33
2018-09-27T12:16:43.605Z,8.93
2018-09-27T12:19:11.019Z,5.87
2018-09-27T12:21:38.474Z,7.83
2018-09-27T12:24:11.893Z,8.50
2018-09-27T12:26:48.427Z,5.07
2018-09-27T12:29:24.406Z,6.33
2018-09-27T12:31:55.383Z,6.20
2018-09-27T12:34:29.347Z,5.53
2018-09-27T12:37:00.903Z,7.07
2018-09-27T12:39:37.097Z,7.43
2018-09-27T12:42:10.465Z,3.83
2018-09-27T12:44:38.630Z,6.63
2018-09-27T12:47:06.000Z,6.07
2018-09-27T12:49:33.503Z,5.57
2018-09-27T12:52:01.129Z,4.70
2018-09-27T12:54:28.402Z,4.33
2018-09-27T12:56:55.843Z,6.57
2018-09-27T12:59:23.232Z,7.90
2018-09-27T13:01:50.930Z,4.50
2018-09-27T13:04:18.255Z,4.13
2018-09-27T13:06:45.885Z,3.93
2018-09-27T13:09:13.970Z,7.30
2018-09-27T13:11:41.369Z,4.60
2018-09-27T13:14:08.899Z,3.30
2018-09-27T13:16:36.339Z,3.60
2018-09-27T13:19:04.409Z,3.00
2018-09-27T13:21:32.047Z,3.70
2018-09-27T13:23:59.511Z,4.53
2018-09-27T13:26:27.436Z,9.13
2018-09-27T13:28:55.109Z,4.00
2018-09-27T13:31:22.609Z,5.70
2018-09-27T13:33:50.028Z,4.50
2018-09-27T13:36:17.417Z,23.00
2018-09-27T13:38:44.943Z,26.87
2018-09-27T13:41:12.422Z,27.97
2018-09-27T13:43:39.856Z,29.97
2018-09-27T13:46:07.228Z,31.20
2018-09-27T13:48:34.779Z,26.80
2018-09-27T13:51:02.576Z,23.27
2018-09-27T13:53:30.090Z,21.87
2018-09-27T13:55:57.527Z,22.87
2018-09-27T13:58:24.906Z,51.10
2018-09-27T14:00:52.510Z,35.23
2018-09-27T14:03:19.986Z,25.85
2018-09-27T14:05:47.583Z,17.47
2018-09-27T14:08:15.748Z,14.20
2018-09-27T14:10:43.301Z,8.37
2018-09-27T14:13:10.769Z,7.83
2018-09-27T14:15:38.291Z,6.97
2018-09-27T14:18:06.016Z,5.97
2018-09-27T14:20:33.552Z,6.57
2018-09-27T14:23:01.129Z,6.07
2018-09-27T14:25:28.855Z,6.60
2018-09-27T14:27:56.388Z,9.17
2018-09-27T14:30:23.812Z,5.93
2018-09-27T14:32:51.279Z,6.20
2018-09-27T14:35:18.762Z,6.10
2018-09-27T14:37:46.510Z,4.30
2018-09-27T14:40:13.951Z,5.13
2018-09-27T14:42:41.517Z,4.63
2018-09-27T14:45:08.875Z,5.13
2018-09-27T14:47:36.334Z,4.50
2018-09-27T14:50:04.198Z,5.27
2018-09-27T14:52:31.980Z,6.03
2018-09-27T14:54:59.566Z,4.17
2018-09-27T14:57:26.987Z,6.87
2018-09-27T14:59:54.442Z,6.20
2018-09-27T15:02:22.024Z,10.70
2018-09-27T15:04:49.297Z,43.20
2018-09-27T15:07:16.884Z,15.43
2018-09-27T15:09:44.403Z,13.90
2018-09-27T15:12:11.798Z,9.30
2018-09-27T15:14:39.317Z,7.80
2018-09-27T15:17:06.675Z,7.30
2018-09-27T15:19:34.496Z,5.73
2018-09-27T15:22:02.053Z,6.13
2018-09-27T15:24:29.634Z,6.43
2018-09-27T15:26:57.225Z,5.30
2018-09-27T15:29:24.734Z,4.60
2018-09-27T15:31:52.158Z,5.27
2018-09-27T15:34:19.582Z,3.73
2018-09-27T15:36:47.171Z,7.50
2018-09-27T15:39:14.586Z,3.77
2018-09-27T15:41:42.178Z,6.03
2018-09-27T15:44:09.686Z,3.30
2018-09-27T15:46:37.118Z,3.13
2018-09-27T15:49:04.486Z,7.13
2018-09-27T15:51:32.059Z,4.40
2018-09-27T15:53:59.551Z,4.57
2018-09-27T15:56:27.507Z,2.90
2018-09-27T15:58:55.115Z,8.73
2018-09-27T16:01:22.588Z,4.23
2018-09-27T16:03:49.963Z,3.90
2018-09-27T16:06:17.567Z,2.83
2018-09-27T16:08:45.130Z,3.40
2018-09-27T16:11:12.692Z,4.93
2018-09-27T16:13:40.061Z,3.40
2018-09-27T16:16:07.787Z,3.20
2018-09-27T16:18:35.196Z,4.77
2018-09-27T16:21:02.819Z,3.73
2018-09-27T16:23:30.283Z,2.20
2018-09-27T16:25:57.900Z,3.00
2018-09-27T16:28:25.439Z,4.43
2018-09-27T16:30:52.942Z,4.83
2018-09-27T16:33:21.261Z,4.40
2018-09-27T16:35:48.939Z,3.40
2018-09-27T16:38:16.412Z,3.67
2018-09-27T16:40:43.921Z,2.50
2018-09-27T16:43:11.410Z,4.53
2018-09-27T16:45:39.594Z,4.10
2018-09-27T16:48:07.147Z,2.83
2018-09-27T16:50:35.884Z,4.50
2018-09-27T16:53:03.404Z,3.33
2018-09-27T16:55:30.955Z,4.10
2018-09-27T16:57:59.358Z,3.67
2018-09-27T17:00:26.861Z,20.90
2018-09-27T17:02:54.478Z,9.53
2018-09-27T17:05:22.001Z,8.87
2018-09-27T17:07:49.622Z,8.70
2018-09-27T17:10:17.114Z,7.00
2018-09-27T17:12:44.743Z,5.67
2018-09-27T17:15:12.194Z,4.60
2018-09-27T17:17:40.134Z,3.97
2018-09-27T17:20:07.647Z,5.13
2018-09-27T17:22:35.299Z,4.67
2018-09-27T17:25:03.951Z,3.63
2018-09-27T17:27:31.607Z,3.63
2018-09-27T17:29:59.162Z,4.43
2018-09-27T17:32:26.657Z,5.80
2018-09-27T17:34:54.378Z,4.00
2018-09-27T17:37:21.769Z,5.60
2018-09-27T17:39:49.248Z,7.90
2018-09-27T17:42:16.640Z,6.73
2018-09-27T17:44:44.111Z,4.37
2018-09-27T17:47:11.614Z,6.97
2018-09-27T17:49:39.691Z,6.67
2018-09-27T17:52:08.030Z,5.63
2018-09-27T17:54:35.529Z,4.90
2018-09-27T17:57:03.246Z,5.00
2018-09-27T17:59:31.342Z,4.63
2018-09-27T18:01:58.806Z,5.37
2018-09-27T18:04:26.390Z,6.80
2018-09-27T18:06:53.899Z,5.90
2018-09-27T18:09:21.502Z,6.40
2018-09-27T18:11:49.007Z,5.13
2018-09-27T18:14:17.447Z,7.93
2018-09-27T18:16:45.122Z,6.67
2018-09-27T18:19:12.751Z,8.13
2018-09-27T18:21:40.275Z,8.33
2018-09-27T18:24:07.915Z,6.50
2018-09-27T18:26:35.309Z,8.70
2018-09-27T18:29:02.836Z,6.13
2018-09-27T18:31:30.522Z,8.57
2018-09-27T18:33:58.033Z,11.53
2018-09-27T18:36:25.630Z,7.80
2018-09-27T18:38:53.098Z,8.23
2018-09-27T18:41:20.746Z,10.83
2018-09-27T18:43:48.228Z,9.00
2018-09-27T18:46:15.749Z,7.70
2018-09-27T18:48:43.437Z,9.33
2018-09-27T18:51:11.004Z,7.97
2018-09-27T18:53:38.530Z,13.20
2018-09-27T18:56:06.034Z,7.73
2018-09-27T18:58:33.567Z,14.07
2018-09-27T19:01:01.174Z,8.40
2018-09-27T19:03:29.603Z,8.33
2018-09-27T19:05:57.122Z,11.10
2018-09-27T19:08:24.569Z,12.37
2018-09-27T19:10:51.990Z,13.93
2018-09-27T19:13:19.493Z,12.67
2018-09-27T19:15:47.409Z,23.63
2018-09-27T19:18:14.801Z,13.07
2018-09-27T19:20:42.225Z,9.93
2018-09-27T19:23:09.613Z,10.40
2018-09-27T19:25:37.136Z,11.90
2018-09-27T19:28:04.757Z,6.77
2018-09-27T19:30:32.154Z,10.50
2018-09-27T19:32:59.554Z,9.40
2018-09-27T19:35:27.107Z,10.17
2018-09-27T19:37:54.508Z,9.73
2018-09-27T19:40:21.957Z,10.30
2018-09-27T19:42:50.305Z,9.43
2018-09-27T19:45:18.668Z,7.90
2018-09-27T19:47:46.213Z,13.87
2018-09-27T19:50:13.834Z,30.93
2018-09-27T19:52:41.221Z,22.27
2018-09-27T19:55:08.714Z,20.67
2018-09-27T19:57:36.226Z,11.50
2018-09-27T20:00:03.977Z,12.03
2018-09-27T20:02:31.612Z,13.07
2018-09-27T20:04:59.118Z,12.27
2018-09-27T20:07:26.598Z,10.20
2018-09-27T20:09:54.653Z,11.70
2018-09-27T20:12:22.075Z,9.30
2018-09-27T20:14:49.429Z,8.50
2018-09-27T20:17:16.842Z,10.60
2018-09-27T20:19:44.339Z,8.23
2018-09-27T20:22:12.633Z,9.10
2018-09-27T20:24:40.157Z,10.90
2018-09-27T20:27:09.355Z,10.27
2018-09-27T20:29:36.785Z,9.43
2018-09-27T20:32:04.601Z,17.73
2018-09-27T20:34:33.061Z,10.80
2018-09-27T20:37:00.586Z,13.13
2018-09-27T20:39:28.787Z,10.80
2018-09-27T20:41:56.387Z,6.93
2018-09-27T20:44:23.853Z,7.17
2018-09-27T20:46:51.267Z,12.17
2018-09-27T20:49:18.850Z,9.10
2018-09-27T20:51:46.350Z,7.27
2018-09-27T20:54:13.762Z,9.27
2018-09-27T20:56:41.193Z,6.17
2018-09-27T20:59:08.767Z,7.70
2018-09-27T21:01:36.194Z,9.43
2018-09-27T21:04:03.662Z,8.20
2018-09-27T21:06:31.080Z,7.73
2018-09-27T21:08:59.238Z,8.70
2018-09-27T21:11:26.702Z,8.00
2018-09-27T21:13:54.121Z,8.90
2018-09-27T21:16:21.603Z,7.60
2018-09-27T21:18:49.209Z,11.93
2018-09-27T21:21:16.776Z,6.30
2018-09-27T21:23:44.202Z,7.87
2018-09-27T21:26:12.276Z,9.37
2018-09-27T21:28:39.927Z,8.40
2018-09-27T21:31:07.805Z,9.67
2018-09-27T21:33:35.338Z,8.70
2018-09-27T21:36:02.776Z,11.00
2018-09-27T21:38:30.298Z,7.03
2018-09-27T21:40:58.398Z,9.17
2018-09-27T21:43:25.873Z,7.40
2018-09-27T21:45:53.387Z,7.87
2018-09-27T21:48:20.789Z,9.50
2018-09-27T21:50:48.246Z,8.70
2018-09-27T21:53:15.590Z,8.00
2018-09-27T21:55:43.138Z,8.77
2018-09-27T21:58:10.596Z,8.87
2018-09-27T22:00:38.135Z,10.60
2018-09-27T22:03:05.567Z,12.43
2018-09-27T22:05:33.002Z,11.13
2018-09-27T22:08:00.376Z,8.50
2018-09-27T22:10:27.961Z,11.63
2018-09-27T22:12:55.956Z,13.17
2018-09-27T22:15:23.312Z,8.80
2018-09-27T22:17:51.323Z,7.97
2018-09-27T22:20:18.759Z,10.77
2018-09-27T22:22:46.142Z,9.90
2018-09-27T22:25:13.590Z,10.27
2018-09-27T22:27:40.970Z,10.47
2018-09-27T22:30:08.758Z,9.73
2018-09-27T22:32:36.105Z,11.77
2018-09-27T22:35:03.607Z,11.47
2018-09-27T22:37:30.987Z,7.10
2018-09-27T22:39:58.418Z,9.73
2018-09-27T22:42:25.861Z,10.73
2018-09-27T22:44:53.249Z,11.47
2018-09-27T22:47:20.620Z,9.40
2018-09-27T22:49:48.015Z,13.37
2018-09-27T22:52:15.350Z,10.77
2018-09-27T22:54:42.826Z,10.37
2018-09-27T22:57:10.237Z,12.47
2018-09-27T22:59:39.092Z,11.30
2018-09-27T23:02:07.107Z,11.17
2018-09-27T23:04:34.516Z,9.70
2018-09-27T23:07:01.943Z,12.73
2018-09-27T23:09:30.790Z,12.17
2018-09-27T23:11:58.146Z,12.10
2018-09-27T23:14:25.590Z,15.33
2018-09-27T23:16:52.982Z,12.47
2018-09-27T23:19:20.423Z,15.33
2018-09-27T23:21:47.840Z,14.10
2018-09-27T23:24:15.250Z,16.53
2018-09-27T23:26:42.621Z,10.30
2018-09-27T23:29:10.302Z,12.33
2018-09-27T23:31:37.817Z,13.30
2018-09-27T23:34:05.553Z,17.90
2018-09-27T23:36:32.971Z,16.90
2018-09-27T23:39:00.350Z,14.83
2018-09-27T23:41:28.557Z,15.77
2018-09-27T23:44:02.113Z,19.07
2018-09-27T23:46:29.511Z,19.03
2018-09-27T23:48:56.876Z,23.13
2018-09-27T23:51:24.237Z,19.50
2018-09-27T23:53:51.635Z,18.20
2018-09-27T23:56:19.062Z,15.53
2018-09-27T23:58:46.582Z,16.13
